Time;durP1;ratioP1;P1;durP2;ratioP2;P2;SDS_P1;SDS_P2;PMS_P1;PMS_P2;Temp;Humidity;BMP_temperature;BMP_pressure;BME280_temperature;BME280_humidity;BME280_pressure;Samples;Min_cycle;Max_cycle;Signal;HPM_P1;HPM_P2
2022/12/08 00:01:34;;;;;;;61.53;49.70;;;4.00;99.90;;;;;;5069038;28;20266;-51
2022/12/08 00:04:03;;;;;;;54.07;41.13;;;3.90;99.90;;;;;;5055373;28;20254;-51
2022/12/08 00:09:22;;;;;;;49.00;30.20;;;3.90;99.90;;;;;;5065764;28;20662;-51
2022/12/08 00:11:52;;;;;;;77.87;46.77;;;3.90;99.90;;;;;;5063477;28;20207;-51
2022/12/08 00:14:24;;;;;;;53.90;40.40;;;3.90;99.90;;;;;;5068796;28;20297;-51
2022/12/08 00:16:52;;;;;;;69.23;46.47;;;4.00;99.90;;;;;;5068640;28;20291;-51
2022/12/08 00:19:21;;;;;;;99.80;58.70;;;3.90;99.90;;;;;;5058403;28;20243;-51
2022/12/08 00:21:49;;;;;;;107.30;67.50;;;3.90;99.90;;;;;;5068513;28;20311;-51
2022/12/08 00:24:17;;;;;;;72.17;47.63;;;3.90;99.90;;;;;;5069033;28;20297;-51
2022/12/08 00:26:47;;;;;;;61.77;53.00;;;3.90;99.90;;;;;;5068598;28;20322;-52
2022/12/08 00:29:15;;;;;;;61.43;49.53;;;3.90;99.90;;;;;;5068511;28;20725;-52
2022/12/08 00:31:46;;;;;;;52.00;42.50;;;3.90;99.90;;;;;;5068257;28;20682;-51
2022/12/08 00:34:15;;;;;;;56.07;50.97;;;3.80;99.90;;;;;;5066501;28;20248;-51
2022/12/08 00:36:44;;;;;;;90.80;54.70;;;3.80;99.90;;;;;;5061411;28;20292;-51
2022/12/08 00:39:13;;;;;;;55.93;45.27;;;3.80;99.90;;;;;;5067449;28;20226;-52
2022/12/08 00:44:26;;;;;;;71.47;59.63;;;3.70;99.90;;;;;;5058203;28;20245;-51
2022/12/08 00:46:56;;;;;;;65.00;46.67;;;3.70;99.90;;;;;;5068489;28;20298;-51
2022/12/08 00:49:24;;;;;;;48.30;43.23;;;3.70;99.90;;;;;;5068812;28;20658;-51
2022/12/08 00:51:52;;;;;;;103.40;79.27;;;3.70;99.90;;;;;;5067606;28;20204;-52
2022/12/08 00:54:21;;;;;;;50.40;42.47;;;3.60;99.90;;;;;;5068338;28;20664;-51
2022/12/08 00:56:50;;;;;;;54.67;48.97;;;3.60;99.90;;;;;;5068360;28;20204;-52
2022/12/08 00:59:18;;;;;;;57.43;51.40;;;3.60;99.90;;;;;;5067320;28;21050;-51
2022/12/08 01:01:47;;;;;;;46.40;39.07;;;3.50;99.90;;;;;;5066616;28;20291;-51
2022/12/08 01:04:18;;;;;;;50.60;45.47;;;3.50;99.90;;;;;;5065791;28;20208;-51
2022/12/08 01:06:47;;;;;;;65.63;47.17;;;3.50;99.90;;;;;;5067144;28;20295;-52
2022/12/08 01:09:16;;;;;;;43.20;33.53;;;3.50;99.90;;;;;;5067489;28;20325;-51
2022/12/08 01:11:45;;;;;;;52.23;46.60;;;3.50;99.90;;;;;;5067323;28;20281;-52
2022/12/08 01:14:13;;;;;;;52.77;47.17;;;3.60;99.90;;;;;;5068079;28;20224;-51
2022/12/08 01:16:42;;;;;;;56.80;50.40;;;3.60;99.90;;;;;;5071188;28;20205;-50
2022/12/08 01:19:11;;;;;;;89.90;65.10;;;3.70;99.90;;;;;;5071709;28;20224;-52
2022/12/08 01:21:42;;;;;;;55.73;47.27;;;3.60;99.90;;;;;;5071294;28;20305;-52
2022/12/08 01:24:12;;;;;;;115.17;54.27;;;3.60;99.90;;;;;;5071361;28;20610;-52
2022/12/08 01:26:40;;;;;;;51.73;37.80;;;3.60;99.90;;;;;;5070976;28;20765;-51
2022/12/08 01:29:08;;;;;;;65.13;43.13;;;3.70;99.90;;;;;;5071440;28;20254;-52
2022/12/08 01:31:36;;;;;;;44.93;38.17;;;3.70;99.90;;;;;;5071502;28;20751;-52
2022/12/08 01:34:04;;;;;;;53.87;38.93;;;3.70;99.90;;;;;;5062916;28;20291;-52
2022/12/08 01:36:35;;;;;;;102.80;62.93;;;3.70;99.90;;;;;;5071492;28;20277;-52
2022/12/08 01:39:07;;;;;;;97.87;61.27;;;3.70;99.90;;;;;;5069904;28;20278;-51
2022/12/08 01:41:38;;;;;;;52.20;36.17;;;3.70;99.90;;;;;;5063299;28;20212;-53
2022/12/08 01:44:39;;;;;;;60.93;55.03;;;3.70;99.90;;;;;;5068876;28;20313;-52
2022/12/08 01:47:07;;;;;;;232.37;100.93;;;3.80;99.90;;;;;;5070982;28;20284;-51
2022/12/08 01:49:36;;;;;;;68.40;54.57;;;3.70;99.90;;;;;;5070738;28;20330;-51
2022/12/08 01:52:11;;;;;;;99.50;62.90;;;3.70;99.90;;;;;;5070610;28;20262;-50
2022/12/08 01:54:47;;;;;;;174.77;53.37;;;3.60;99.90;;;;;;5062474;28;20631;-52
2022/12/08 01:57:21;;;;;;;60.30;38.63;;;3.50;99.90;;;;;;5071124;28;20234;-50
2022/12/08 01:59:53;;;;;;;107.77;45.90;;;3.50;99.90;;;;;;5070942;28;20307;-51
2022/12/08 02:02:21;;;;;;;110.10;91.23;;;3.40;99.90;;;;;;5070135;28;20295;-51
2022/12/08 02:04:49;;;;;;;74.17;58.60;;;3.40;99.90;;;;;;5071145;28;20213;-51
2022/12/08 02:07:18;;;;;;;102.60;80.50;;;3.40;99.90;;;;;;5070199;28;20212;-52
2022/12/08 02:09:48;;;;;;;67.93;51.70;;;3.40;99.90;;;;;;5070479;28;20232;-52
2022/12/08 02:12:16;;;;;;;46.27;38.27;;;3.40;99.90;;;;;;5069999;28;20586;-51
2022/12/08 02:14:44;;;;;;;58.73;39.57;;;3.40;99.90;;;;;;5070565;28;20250;-51
2022/12/08 02:17:24;;;;;;;406.00;112.10;;;3.40;99.90;;;;;;5070792;28;20254;-51
2022/12/08 02:20:26;;;;;;;397.50;107.27;;;3.40;99.90;;;;;;5070623;28;20327;-51
2022/12/08 02:22:59;;;;;;;288.00;106.10;;;3.40;99.90;;;;;;5069959;28;20255;-51
2022/12/08 02:25:40;;;;;;;141.43;57.63;;;3.40;99.90;;;;;;5070635;28;20254;-51
2022/12/08 02:28:38;;;;;;;130.47;87.97;;;3.30;99.90;;;;;;5069205;28;20239;-51
2022/12/08 02:31:17;;;;;;;70.60;51.20;;;3.30;99.90;;;;;;5070284;28;20290;-51
2022/12/08 02:34:11;;;;;;;79.37;58.63;;;3.40;99.90;;;;;;5069660;28;20207;-51
2022/12/08 02:36:49;;;;;;;65.87;44.70;;;3.50;99.90;;;;;;5069204;28;20242;-51
2022/12/08 02:39:28;;;;;;;93.30;65.77;;;3.50;99.90;;;;;;5066343;28;20313;-51
2022/12/08 02:42:06;;;;;;;100.20;70.80;;;3.50;99.90;;;;;;5070264;28;20211;-51
2022/12/08 02:44:39;;;;;;;84.10;75.37;;;3.50;99.90;;;;;;5074913;28;20253;-51
2022/12/08 02:47:11;;;;;;;88.60;57.83;;;3.50;99.90;;;;;;5085639;28;20231;-51
2022/12/08 02:49:41;;;;;;;76.20;67.40;;;3.50;99.90;;;;;;5081456;28;20233;-51
2022/12/08 02:52:43;;;;;;;152.57;90.93;;;3.50;99.90;;;;;;5089871;28;20735;-51
2022/12/08 02:55:27;;;;;;;88.67;67.50;;;3.50;99.90;;;;;;5088563;28;20319;-51
2022/12/08 02:58:26;;;;;;;59.70;44.70;;;3.50;99.90;;;;;;5077465;28;20916;-51
2022/12/08 03:01:08;;;;;;;157.40;73.40;;;3.50;99.90;;;;;;5089424;28;20289;-51
2022/12/08 03:03:44;;;;;;;144.60;66.20;;;3.50;99.90;;;;;;5089194;28;20315;-51
2022/12/08 03:06:25;;;;;;;65.40;58.47;;;3.50;99.90;;;;;;5089664;28;20292;-51
2022/12/08 03:08:58;;;;;;;133.57;78.60;;;3.50;99.90;;;;;;5085484;28;20228;-51
2022/12/08 03:11:34;;;;;;;85.30;71.13;;;3.50;99.90;;;;;;5089400;28;20301;-51
2022/12/08 03:14:06;;;;;;;81.63;64.23;;;3.60;99.90;;;;;;5073130;28;20300;-51
2022/12/08 03:16:40;;;;;;;227.67;100.40;;;3.60;99.90;;;;;;5089197;28;20676;-52
2022/12/08 03:19:13;;;;;;;244.83;87.93;;;3.60;99.90;;;;;;5084528;28;20315;-52
2022/12/08 03:21:44;;;;;;;60.50;46.70;;;3.60;99.90;;;;;;5090239;28;20282;-51
2022/12/08 03:24:15;;;;;;;70.33;53.33;;;3.60;99.90;;;;;;5089381;28;20320;-52
2022/12/08 03:26:49;;;;;;;84.83;61.77;;;3.60;99.90;;;;;;5077088;28;20236;-52
2022/12/08 03:29:18;;;;;;;270.47;82.67;;;3.60;99.90;;;;;;5089392;28;20317;-51
2022/12/08 03:31:57;;;;;;;136.97;69.47;;;3.60;99.90;;;;;;5089498;28;20312;-52
2022/12/08 03:34:29;;;;;;;77.03;60.17;;;3.60;99.90;;;;;;5075202;28;20232;-51
2022/12/08 03:37:01;;;;;;;196.60;55.23;;;3.60;99.90;;;;;;5088197;28;20259;-51
2022/12/08 03:39:29;;;;;;;441.57;104.60;;;3.50;99.90;;;;;;5074549;28;20271;-51
2022/12/08 03:41:57;;;;;;;78.13;61.77;;;3.50;99.90;;;;;;5089099;28;20297;-52
2022/12/08 03:44:25;;;;;;;112.73;78.53;;;3.50;99.90;;;;;;5089697;28;20222;-52
2022/12/08 03:46:53;;;;;;;92.07;58.33;;;3.50;99.90;;;;;;5082140;28;20221;-51
2022/12/08 03:49:21;;;;;;;208.20;86.50;;;3.50;99.90;;;;;;5080387;28;20751;-52
2022/12/08 03:51:49;;;;;;;204.47;90.93;;;3.60;99.90;;;;;;5067411;28;20212;-51
2022/12/08 03:54:19;;;;;;;78.43;54.27;;;3.60;99.90;;;;;;5089550;28;20202;-52
2022/12/08 03:56:47;;;;;;;63.00;55.07;;;3.60;99.90;;;;;;5089278;28;20221;-52
2022/12/08 03:59:15;;;;;;;58.70;42.47;;;3.60;99.90;;;;;;5089296;28;20313;-52
2022/12/08 04:01:43;;;;;;;79.00;46.13;;;3.70;99.90;;;;;;5088772;28;20291;-51
2022/12/08 04:04:11;;;;;;;73.43;59.40;;;3.70;99.90;;;;;;5078220;28;20231;-52
2022/12/08 04:06:39;;;;;;;165.63;73.43;;;3.70;99.90;;;;;;5081236;28;20239;-52
2022/12/08 04:09:07;;;;;;;77.17;55.30;;;3.70;99.90;;;;;;5067201;28;20263;-52
2022/12/08 04:11:37;;;;;;;65.47;43.53;;;3.70;99.90;;;;;;5068082;28;20240;-51
2022/12/08 04:14:05;;;;;;;65.60;45.67;;;3.80;99.90;;;;;;5068068;28;20644;-52
2022/12/08 04:16:33;;;;;;;58.80;46.07;;;3.80;99.90;;;;;;5068734;28;20294;-52
2022/12/08 04:19:01;;;;;;;71.77;50.90;;;3.80;99.90;;;;;;5068754;28;20317;-52
2022/12/08 04:21:29;;;;;;;50.77;42.60;;;3.80;99.90;;;;;;5068963;28;20294;-52
2022/12/08 04:23:57;;;;;;;107.20;55.80;;;3.80;99.90;;;;;;5070397;28;20955;-51
2022/12/08 04:26:28;;;;;;;119.07;64.70;;;3.80;99.90;;;;;;5071051;28;20208;-51
2022/12/08 04:28:58;;;;;;;85.10;56.57;;;3.70;99.90;;;;;;5070884;28;20332;-51
2022/12/08 04:31:26;;;;;;;52.00;38.43;;;3.70;99.90;;;;;;5068978;28;20251;-52
2022/12/08 04:33:54;;;;;;;118.17;61.60;;;3.70;99.90;;;;;;5068444;28;20208;-52
2022/12/08 04:36:22;;;;;;;54.40;41.50;;;3.60;99.90;;;;;;5067337;28;20707;-51
2022/12/08 04:38:50;;;;;;;438.10;116.30;;;3.60;99.90;;;;;;5068554;28;20307;-52
2022/12/08 04:41:18;;;;;;;60.23;42.03;;;3.60;99.90;;;;;;5068683;28;20297;-51
2022/12/08 04:43:46;;;;;;;104.90;62.60;;;3.60;99.90;;;;;;5067443;28;20321;-51
2022/12/08 04:46:16;;;;;;;83.73;66.90;;;3.70;99.90;;;;;;5063318;28;20203;-51
2022/12/08 04:48:44;;;;;;;90.23;56.13;;;3.60;99.90;;;;;;5067449;28;20240;-51
2022/12/08 04:51:16;;;;;;;203.53;74.43;;;3.70;99.90;;;;;;5059312;28;20771;-51
2022/12/08 04:53:44;;;;;;;164.83;74.53;;;3.60;99.90;;;;;;5071925;28;20291;-51
2022/12/08 04:56:14;;;;;;;81.43;49.73;;;3.60;99.90;;;;;;5071663;28;20217;-52
2022/12/08 04:58:42;;;;;;;199.70;62.23;;;3.70;99.90;;;;;;5070247;28;20262;-52
2022/12/08 05:01:11;;;;;;;88.47;57.57;;;3.60;99.90;;;;;;5072055;28;20311;-51
2022/12/08 05:03:40;;;;;;;111.53;49.93;;;3.60;99.90;;;;;;5071663;28;20558;-52
2022/12/08 05:06:12;;;;;;;562.07;141.70;;;3.70;99.90;;;;;;5071980;28;20213;-52
2022/12/08 05:08:40;;;;;;;115.33;51.50;;;3.60;99.90;;;;;;5072148;28;20297;-52
2022/12/08 05:11:11;;;;;;;139.87;73.63;;;3.60;99.90;;;;;;5071455;28;20255;-52
2022/12/08 05:13:39;;;;;;;331.23;108.33;;;3.60;99.90;;;;;;5071292;28;20271;-52
2022/12/08 05:16:09;;;;;;;133.17;59.07;;;3.60;99.90;;;;;;5070864;28;20215;-52
2022/12/08 05:18:38;;;;;;;65.63;43.70;;;3.60;99.90;;;;;;5071613;28;20316;-52
2022/12/08 05:21:09;;;;;;;968.93;212.80;;;3.60;99.90;;;;;;5071104;28;20633;-52
2022/12/08 05:23:37;;;;;;;173.07;66.37;;;3.50;99.90;;;;;;5063235;28;20285;-52
2022/12/08 05:26:05;;;;;;;455.40;111.33;;;3.50;99.90;;;;;;5071359;28;20260;-52
2022/12/08 05:28:33;;;;;;;619.57;131.80;;;3.50;99.90;;;;;;5069133;28;20314;-51
2022/12/08 05:31:11;;;;;;;518.50;195.03;;;3.50;99.90;;;;;;5064767;28;20232;-52
2022/12/08 05:33:39;;;;;;;146.27;59.00;;;3.50;99.90;;;;;;5069182;28;20584;-52
2022/12/08 05:36:10;;;;;;;271.30;98.10;;;3.50;99.90;;;;;;5070205;28;20342;-52
2022/12/08 05:38:38;;;;;;;185.10;73.07;;;3.50;99.90;;;;;;5071338;28;20319;-52
2022/12/08 05:41:06;;;;;;;207.77;62.53;;;3.50;99.90;;;;;;5071397;28;20617;-52
2022/12/08 05:43:34;;;;;;;258.67;86.93;;;3.60;99.90;;;;;;5070785;28;20646;-53
2022/12/08 05:46:02;;;;;;;623.50;121.73;;;3.50;99.90;;;;;;5071516;28;20231;-52
2022/12/08 05:48:31;;;;;;;250.87;80.90;;;3.60;99.90;;;;;;5059608;28;20315;-52
2022/12/08 05:50:59;;;;;;;345.63;129.40;;;3.60;99.90;;;;;;5071336;28;20577;-52
2022/12/08 05:53:29;;;;;;;85.70;57.10;;;3.60;99.90;;;;;;5070730;28;20753;-52
2022/12/08 05:55:57;;;;;;;300.93;77.43;;;3.60;99.90;;;;;;5070744;28;20311;-51
2022/12/08 05:58:25;;;;;;;310.10;110.53;;;3.60;99.90;;;;;;5071190;28;20253;-52
2022/12/08 06:00:53;;;;;;;126.70;63.73;;;3.50;99.90;;;;;;5070895;28;20305;-52
2022/12/08 06:03:21;;;;;;;123.93;70.53;;;3.50;99.90;;;;;;5070457;28;20309;-52
2022/12/08 06:05:49;;;;;;;85.97;58.43;;;3.60;99.90;;;;;;5070639;28;22265;-53
2022/12/08 06:08:17;;;;;;;109.23;64.03;;;3.60;99.90;;;;;;5070721;28;20310;-51
2022/12/08 06:10:47;;;;;;;121.73;62.47;;;3.50;99.90;;;;;;5070773;28;20586;-51
2022/12/08 06:13:15;;;;;;;197.17;67.83;;;3.60;99.90;;;;;;5070026;28;20309;-52
2022/12/08 06:15:43;;;;;;;115.27;44.57;;;3.60;99.90;;;;;;5070694;28;20738;-51
2022/12/08 06:18:12;;;;;;;65.97;46.43;;;3.60;99.90;;;;;;5070592;28;20233;-51
2022/12/08 06:20:40;;;;;;;332.17;87.57;;;3.60;99.90;;;;;;5070137;28;20242;-51
2022/12/08 06:23:08;;;;;;;399.87;103.03;;;3.60;99.90;;;;;;5068902;28;20779;-52
2022/12/08 06:25:36;;;;;;;67.30;51.90;;;3.60;99.90;;;;;;5070493;28;20338;-52
2022/12/08 06:28:07;;;;;;;187.67;49.70;;;3.70;99.90;;;;;;5070506;28;20229;-52
2022/12/08 06:30:35;;;;;;;105.60;72.03;;;3.70;99.90;;;;;;5070607;28;20244;-52
2022/12/08 06:33:03;;;;;;;1321.30;290.67;;;3.70;99.90;;;;;;5069652;28;20212;-51
2022/12/08 06:35:31;;;;;;;77.63;61.63;;;3.70;99.90;;;;;;5057473;28;20585;-52
2022/12/08 06:37:59;;;;;;;217.83;55.93;;;3.70;99.90;;;;;;5070229;28;20297;-52
2022/12/08 06:40:27;;;;;;;410.47;83.93;;;3.70;99.90;;;;;;5070656;28;20240;-52
2022/12/08 06:42:55;;;;;;;146.37;58.33;;;3.70;99.90;;;;;;5069670;28;20727;-51
2022/12/08 06:45:25;;;;;;;284.03;110.53;;;3.60;99.90;;;;;;5069819;28;20236;-51
2022/12/08 06:47:53;;;;;;;80.57;55.17;;;3.70;99.90;;;;;;5070016;28;20739;-52
2022/12/08 06:50:21;;;;;;;84.17;57.77;;;3.70;99.90;;;;;;5070062;28;20289;-52
2022/12/08 06:52:49;;;;;;;86.40;45.03;;;3.70;99.90;;;;;;5068583;28;20218;-52
2022/12/08 06:55:31;;;;;;;86.97;69.60;;;3.70;99.90;;;;;;5060414;28;20258;-52
2022/12/08 06:58:20;;;;;;;105.17;51.83;;;3.70;99.90;;;;;;5069818;28;20228;-52
2022/12/08 07:00:49;;;;;;;1283.27;299.57;;;3.80;99.90;;;;;;5069867;28;20676;-52
2022/12/08 07:03:18;;;;;;;943.20;205.93;;;3.70;99.90;;;;;;5060041;28;20209;-52
2022/12/08 07:05:46;;;;;;;52.90;45.07;;;3.60;99.90;;;;;;5069036;28;20314;-52
2022/12/08 07:08:14;;;;;;;65.10;53.30;;;3.70;99.90;;;;;;5065565;28;21719;-52
2022/12/08 07:10:42;;;;;;;209.73;76.00;;;3.70;99.90;;;;;;5069588;28;20846;-51
2022/12/08 07:13:10;;;;;;;118.80;48.03;;;3.70;99.90;;;;;;5068211;28;20289;-52
2022/12/08 07:15:38;;;;;;;122.27;74.10;;;3.80;99.90;;;;;;5069027;28;20286;-52
2022/12/08 07:18:08;;;;;;;133.73;73.03;;;3.80;99.90;;;;;;5068288;28;20246;-52
2022/12/08 07:20:36;;;;;;;233.47;72.03;;;3.80;99.90;;;;;;5069735;28;20242;-51
2022/12/08 07:23:04;;;;;;;280.10;95.60;;;3.80;99.90;;;;;;5068918;28;20216;-52
2022/12/08 07:25:32;;;;;;;160.17;84.03;;;3.80;99.90;;;;;;5069427;28;20266;-52
2022/12/08 07:28:00;;;;;;;70.97;52.83;;;3.80;99.90;;;;;;5068743;28;20721;-52
2022/12/08 07:30:28;;;;;;;239.73;108.67;;;3.90;99.90;;;;;;5069759;28;20241;-52
2022/12/08 07:32:56;;;;;;;267.03;122.30;;;3.90;99.90;;;;;;5069013;28;20208;-52
2022/12/08 07:35:25;;;;;;;80.37;53.37;;;3.90;99.90;;;;;;5068222;28;20252;-52
2022/12/08 07:37:54;;;;;;;400.57;138.60;;;3.90;99.90;;;;;;5069594;28;20313;-52
2022/12/08 07:40:22;;;;;;;62.27;50.10;;;3.90;99.90;;;;;;5069281;28;20294;-52
2022/12/08 07:42:50;;;;;;;263.47;101.40;;;3.90;99.90;;;;;;5068837;28;20749;-52
2022/12/08 07:45:18;;;;;;;135.83;66.97;;;3.90;99.90;;;;;;5069427;28;20232;-52
2022/12/08 07:47:46;;;;;;;375.47;117.97;;;3.90;99.90;;;;;;5060321;28;21014;-51
2022/12/08 07:50:14;;;;;;;74.73;44.23;;;3.80;99.90;;;;;;5066424;28;20312;-53
2022/12/08 07:52:43;;;;;;;288.63;73.17;;;3.80;99.90;;;;;;5065346;28;20240;-52
2022/12/08 07:55:11;;;;;;;539.27;130.27;;;3.80;99.90;;;;;;5065273;28;20301;-52
2022/12/08 07:57:39;;;;;;;481.33;136.83;;;3.80;99.90;;;;;;5069183;28;20214;-52
2022/12/08 08:00:09;;;;;;;1123.93;323.30;;;3.80;99.90;;;;;;5068727;28;20786;-51
2022/12/08 08:02:37;;;;;;;900.83;165.33;;;3.80;99.90;;;;;;5067952;28;20244;-52
2022/12/08 08:05:06;;;;;;;353.63;115.27;;;3.70;99.90;;;;;;5068998;28;20289;-51
2022/12/08 08:07:35;;;;;;;840.67;183.20;;;3.70;99.90;;;;;;5067166;28;20233;-52
2022/12/08 08:10:06;;;;;;;712.03;185.87;;;3.70;99.90;;;;;;5064704;28;20275;-51
2022/12/08 08:12:35;;;;;;;209.63;68.10;;;3.80;99.90;;;;;;5066828;28;20772;-52
2022/12/08 08:15:06;;;;;;;104.43;60.97;;;3.80;99.90;;;;;;5068509;28;20259;-53
2022/12/08 08:17:34;;;;;;;117.37;59.17;;;3.80;99.90;;;;;;5068587;28;20223;-52
2022/12/08 08:20:05;;;;;;;57.77;44.27;;;3.90;99.90;;;;;;5068997;28;20225;-52
2022/12/08 08:22:35;;;;;;;100.67;40.63;;;3.90;99.90;;;;;;5059602;28;20205;-52
2022/12/08 08:25:04;;;;;;;114.60;56.83;;;4.00;99.90;;;;;;5056109;28;20208;-52
2022/12/08 08:27:33;;;;;;;42.07;31.47;;;4.00;99.90;;;;;;5072394;28;20657;-51
2022/12/08 08:30:01;;;;;;;91.03;53.20;;;4.00;99.90;;;;;;5071709;28;20798;-53
2022/12/08 08:32:33;;;;;;;876.53;175.87;;;4.00;99.90;;;;;;5071674;28;20770;-51
2022/12/08 08:35:01;;;;;;;149.00;80.03;;;4.00;99.90;;;;;;5071656;28;20296;-51
2022/12/08 08:37:29;;;;;;;101.17;39.97;;;4.00;99.90;;;;;;5072791;28;20644;-52
2022/12/08 08:39:57;;;;;;;111.00;49.63;;;4.00;99.90;;;;;;5060502;28;20308;-52
2022/12/08 08:42:26;;;;;;;105.30;66.90;;;4.00;99.90;;;;;;5072332;28;20361;-52
2022/12/08 08:44:55;;;;;;;539.53;99.23;;;4.00;99.90;;;;;;5072222;28;20216;-53
2022/12/08 08:47:23;;;;;;;418.03;94.90;;;4.00;99.90;;;;;;5065450;28;20283;-51
2022/12/08 08:49:51;;;;;;;127.20;73.67;;;3.90;99.90;;;;;;5066614;28;20337;-51
2022/12/08 08:52:19;;;;;;;99.33;62.37;;;4.00;99.90;;;;;;5065832;28;20315;-52
2022/12/08 08:54:47;;;;;;;54.80;31.33;;;3.90;99.90;;;;;;5072664;28;20299;-52
2022/12/08 08:57:16;;;;;;;50.43;41.90;;;3.90;99.90;;;;;;5071679;28;20233;-52
2022/12/08 08:59:52;;;;;;;53.30;42.40;;;4.10;99.90;;;;;;5065392;28;20293;-52
2022/12/08 09:02:21;;;;;;;206.13;58.23;;;4.10;99.90;;;;;;5071249;28;20220;-52
2022/12/08 09:04:50;;;;;;;426.63;105.13;;;4.10;99.90;;;;;;5072936;28;20291;-52
2022/12/08 09:07:18;;;;;;;541.03;109.10;;;4.10;99.90;;;;;;5072461;28;20228;-52
2022/12/08 09:09:46;;;;;;;162.63;61.60;;;4.10;99.90;;;;;;5063534;28;20269;-52
2022/12/08 09:12:15;;;;;;;131.87;60.40;;;4.10;99.90;;;;;;5071212;28;20233;-52
2022/12/08 09:14:43;;;;;;;40.93;32.33;;;4.20;99.90;;;;;;5071725;28;20683;-52
2022/12/08 09:17:11;;;;;;;107.10;73.70;;;4.20;99.90;;;;;;5072234;28;20301;-52
2022/12/08 09:19:40;;;;;;;158.67;51.83;;;4.20;99.90;;;;;;5071682;28;20260;-53
2022/12/08 09:22:08;;;;;;;116.47;76.93;;;4.20;99.90;;;;;;5063889;28;20260;-52
2022/12/08 09:24:36;;;;;;;165.30;65.50;;;4.20;99.90;;;;;;5059613;28;20745;-52
2022/12/08 09:27:04;;;;;;;113.57;53.03;;;4.20;99.90;;;;;;5071283;28;20316;-53
2022/12/08 09:29:32;;;;;;;171.93;84.17;;;4.30;99.90;;;;;;5071396;28;20329;-52
2022/12/08 09:32:03;;;;;;;308.20;82.53;;;4.30;99.90;;;;;;5070861;28;20216;-52
2022/12/08 09:34:31;;;;;;;140.97;62.67;;;4.20;99.90;;;;;;5071188;28;20229;-52
2022/12/08 09:37:01;;;;;;;192.47;69.10;;;4.20;99.90;;;;;;5066492;28;20336;-52
2022/12/08 09:39:29;;;;;;;243.20;86.17;;;4.20;99.90;;;;;;5064365;28;20308;-51
2022/12/08 09:42:00;;;;;;;126.30;65.83;;;4.30;99.90;;;;;;5070299;28;20300;-52
2022/12/08 09:44:47;;;;;;;92.00;53.10;;;4.30;99.90;;;;;;5070751;28;20295;-51
2022/12/08 09:47:25;;;;;;;64.73;44.83;;;4.30;99.90;;;;;;5070459;28;20249;-52
2022/12/08 09:50:05;;;;;;;39.47;29.40;;;4.40;99.90;;;;;;5066996;28;20220;-53
2022/12/08 09:52:41;;;;;;;440.80;118.43;;;4.50;99.90;;;;;;5070815;28;20208;-52
2022/12/08 09:55:17;;;;;;;109.00;55.97;;;4.50;99.90;;;;;;5071165;28;20210;-52
2022/12/08 09:57:46;;;;;;;55.77;49.67;;;4.50;99.90;;;;;;5071181;28;20236;-52
2022/12/08 10:00:23;;;;;;;58.83;43.40;;;4.50;99.90;;;;;;5071040;28;20342;-52
2022/12/08 10:02:51;;;;;;;280.40;86.67;;;4.50;99.90;;;;;;5063157;28;20202;-52
2022/12/08 10:05:20;;;;;;;1318.57;274.33;;;4.60;99.90;;;;;;5070870;28;20311;-53
2022/12/08 10:08:01;;;;;;;676.77;148.43;;;4.60;99.90;;;;;;5070614;28;20309;-51
2022/12/08 10:10:38;;;;;;;865.47;171.27;;;4.60;99.90;;;;;;5070238;28;20199;-52
2022/12/08 10:13:21;;;;;;;228.77;59.60;;;4.60;99.90;;;;;;5069848;28;20294;-51
2022/12/08 10:15:57;;;;;;;242.20;69.43;;;4.60;99.90;;;;;;5056048;28;20236;-52
2022/12/08 10:18:28;;;;;;;179.50;56.87;;;4.50;99.90;;;;;;5070745;28;20940;-53
2022/12/08 10:21:00;;;;;;;203.07;60.93;;;4.50;99.90;;;;;;5064530;28;20295;-52
2022/12/08 10:23:34;;;;;;;61.23;43.13;;;4.60;99.90;;;;;;5069643;28;20284;-53
2022/12/08 10:26:03;;;;;;;81.07;34.40;;;4.60;99.90;;;;;;5070119;28;20216;-53
2022/12/08 10:28:33;;;;;;;70.07;34.10;;;4.60;99.90;;;;;;5070535;28;20257;-52
2022/12/08 10:31:05;;;;;;;66.30;40.30;;;4.70;99.90;;;;;;5069202;28;20196;-51
2022/12/08 10:33:34;;;;;;;153.77;85.00;;;4.80;99.90;;;;;;5057619;28;20952;-52
2022/12/08 10:36:03;;;;;;;56.63;43.80;;;4.80;99.90;;;;;;5060168;28;20301;-53
2022/12/08 10:38:34;;;;;;;183.60;106.93;;;4.90;99.90;;;;;;5064343;28;20225;-52
2022/12/08 10:41:06;;;;;;;58.40;42.23;;;4.80;99.90;;;;;;5069992;28;20240;-52
2022/12/08 10:43:38;;;;;;;117.57;50.03;;;4.90;99.90;;;;;;5069095;28;20271;-51
2022/12/08 10:46:12;;;;;;;140.43;71.53;;;4.90;99.90;;;;;;5070270;28;20299;-52
2022/12/08 10:48:49;;;;;;;258.17;106.87;;;5.00;99.90;;;;;;5066495;28;20325;-52
2022/12/08 10:51:27;;;;;;;167.80;73.47;;;5.10;99.90;;;;;;5059034;28;20213;-52
2022/12/08 10:53:57;;;;;;;105.10;60.60;;;5.10;99.90;;;;;;5069139;28;20211;-51
2022/12/08 10:56:27;;;;;;;714.13;137.50;;;5.10;99.90;;;;;;5069970;28;20246;-52
2022/12/08 10:59:11;;;;;;;133.23;44.80;;;5.10;99.90;;;;;;5069455;28;20739;-52
2022/12/08 11:01:41;;;;;;;621.93;153.30;;;5.20;99.90;;;;;;5069630;28;20238;-52
2022/12/08 11:04:16;;;;;;;265.60;65.17;;;5.20;99.90;;;;;;5066308;28;20242;-52
2022/12/08 11:06:45;;;;;;;62.00;34.60;;;5.20;99.90;;;;;;5069054;28;20386;-52
2022/12/08 11:09:34;;;;;;;155.53;58.80;;;5.20;99.90;;;;;;5079823;28;21053;-53
2022/12/08 11:12:07;;;;;;;41.57;37.17;;;5.20;99.90;;;;;;5066082;28;20299;-53
2022/12/08 11:14:47;;;;;;;52.00;43.20;;;5.20;99.90;;;;;;5065221;28;20292;-53
2022/12/08 11:17:18;;;;;;;74.10;48.13;;;5.30;99.90;;;;;;5066031;28;20748;-52
2022/12/08 11:19:55;;;;;;;719.07;211.60;;;5.30;99.90;;;;;;5065265;28;20319;-51
2022/12/08 11:22:27;;;;;;;25.33;22.73;;;5.30;99.90;;;;;;5054622;28;20251;-50
2022/12/08 11:25:02;;;;;;;550.77;130.83;;;5.40;99.90;;;;;;5064580;28;20671;-51
2022/12/08 11:27:33;;;;;;;65.73;45.93;;;5.50;99.90;;;;;;5066130;28;20713;-50
2022/12/08 11:30:02;;;;;;;1165.73;245.17;;;5.40;99.90;;;;;;5065445;28;20281;-51
2022/12/08 11:32:39;;;;;;;179.93;63.27;;;5.50;99.90;;;;;;5065921;28;20604;-52
2022/12/08 11:35:10;;;;;;;1180.30;229.77;;;5.40;99.90;;;;;;5064346;28;20248;-52
2022/12/08 11:37:40;;;;;;;734.57;142.97;;;5.50;99.90;;;;;;5065701;28;20713;-50
2022/12/08 11:40:17;;;;;;;32.43;21.77;;;5.40;99.90;;;;;;5065763;28;20315;-51
2022/12/08 11:42:54;;;;;;;70.07;36.03;;;5.40;99.90;;;;;;5065165;28;20291;-51
2022/12/08 11:45:27;;;;;;;253.07;64.43;;;5.40;99.90;;;;;;5065385;28;20239;-51
2022/12/08 11:48:04;;;;;;;143.50;52.57;;;5.40;99.90;;;;;;5065665;28;20317;-51
2022/12/08 11:50:40;;;;;;;1041.10;243.47;;;5.40;99.90;;;;;;5064610;28;20207;-52
2022/12/08 11:53:15;;;;;;;457.50;105.47;;;5.40;99.90;;;;;;5065164;28;20262;-50
2022/12/08 11:55:49;;;;;;;30.87;28.20;;;5.30;99.90;;;;;;5052263;28;20244;-51
2022/12/08 11:58:20;;;;;;;61.70;40.97;;;5.30;99.90;;;;;;5065545;28;21989;-51
2022/12/08 12:00:48;;;;;;;492.73;113.93;;;5.40;99.90;;;;;;5064996;28;20300;-52
2022/12/08 12:03:28;;;;;;;85.40;60.57;;;5.50;99.90;;;;;;5064979;28;20340;-51
2022/12/08 12:06:20;;;;;;;25.43;23.13;;;5.50;99.90;;;;;;5064512;28;20211;-51
2022/12/08 12:09:16;;;;;;;22.57;20.37;;;5.50;99.90;;;;;;5057406;28;20229;-50
2022/12/08 12:12:15;;;;;;;170.97;62.07;;;5.40;99.90;;;;;;5055607;28;20291;-52
2022/12/08 12:15:07;;;;;;;35.73;29.60;;;5.50;99.90;;;;;;5063186;28;20236;-51
2022/12/08 12:17:44;;;;;;;33.27;30.07;;;5.50;99.90;;;;;;5051638;28;20204;-51
2022/12/08 12:20:18;;;;;;;35.53;31.93;;;5.60;99.90;;;;;;5054293;28;20308;-52
2022/12/08 12:22:51;;;;;;;63.97;52.03;;;5.60;99.90;;;;;;5051175;28;20214;-51
2022/12/08 12:25:23;;;;;;;60.17;32.23;;;5.50;99.90;;;;;;5051571;28;20745;-51
2022/12/08 12:27:57;;;;;;;342.07;104.33;;;5.50;99.90;;;;;;5051179;28;20326;-52
2022/12/08 12:30:27;;;;;;;320.60;111.23;;;5.50;99.90;;;;;;5047195;28;20297;-51
2022/12/08 12:32:59;;;;;;;515.67;174.50;;;5.60;99.90;;;;;;5048447;28;20217;-51
2022/12/08 12:35:32;;;;;;;1019.03;236.07;;;5.60;99.90;;;;;;5050315;28;20711;-51
2022/12/08 12:38:59;;;;;;;73.10;40.03;;;5.70;99.90;;;;;;5051054;28;20205;-52
2022/12/08 12:41:01;;;;;;;1218.63;341.20;;;5.70;99.90;;;;;;5050955;28;20825;-50
2022/12/08 12:43:33;;;;;;;1100.70;274.57;;;5.60;99.90;;;;;;5050406;28;20302;-51
2022/12/08 12:46:52;;;;;;;1936.10;529.43;;;5.60;99.90;;;;;;5051170;28;20252;-52
2022/12/08 12:49:52;;;;;;;1246.77;354.57;;;5.50;99.90;;;;;;5050829;28;20262;-51
2022/12/08 12:52:48;;;;;;;352.23;167.87;;;5.50;99.90;;;;;;5050520;28;20244;-51
2022/12/08 12:55:28;;;;;;;342.43;106.30;;;5.40;99.90;;;;;;5050920;28;20250;-50
2022/12/08 12:57:58;;;;;;;701.37;166.23;;;5.50;99.90;;;;;;5050332;28;20233;-51